createdAt,value
2023-01-29T00:02:14.252Z,31.30
2023-01-29T00:04:41.375Z,33.05
2023-01-29T00:07:08.714Z,31.80
2023-01-29T00:09:35.584Z,22.13
2023-01-29T00:12:02.499Z,20.77
2023-01-29T00:14:29.516Z,29.25
2023-01-29T00:16:56.480Z,24.02
2023-01-29T00:19:23.413Z,32.63
2023-01-29T00:21:50.269Z,27.67
2023-01-29T00:24:17.178Z,35.53
2023-01-29T00:26:44.310Z,29.63
2023-01-29T00:29:11.174Z,25.88
2023-01-29T00:31:38.152Z,32.25
2023-01-29T00:34:05.077Z,24.40
2023-01-29T00:36:31.972Z,28.90
2023-01-29T00:39:00.694Z,26.92
2023-01-29T00:41:50.844Z,25.38
2023-01-29T00:44:36.750Z,18.15
2023-01-29T00:47:04.088Z,25.45
2023-01-29T00:49:31.343Z,24.50
2023-01-29T00:52:17.116Z,21.15
2023-01-29T00:54:43.967Z,20.60
2023-01-29T00:57:10.820Z,23.80
2023-01-29T00:59:37.737Z,22.75
2023-01-29T01:02:24.051Z,26.75
2023-01-29T01:04:50.960Z,22.13
2023-01-29T01:07:17.814Z,24.45
2023-01-29T01:10:03.211Z,26.30
2023-01-29T01:12:31.151Z,35.50
2023-01-29T01:14:57.986Z,61.63
2023-01-29T01:17:25.225Z,61.83
2023-01-29T01:19:52.277Z,58.80
2023-01-29T01:22:19.227Z,29.92
2023-01-29T01:24:46.166Z,32.88
2023-01-29T01:27:13.814Z,33.40
2023-01-29T01:29:41.099Z,33.85
2023-01-29T01:32:08.091Z,35.22
2023-01-29T01:34:35.094Z,26.58
2023-01-29T01:37:01.960Z,24.30
2023-01-29T01:39:28.855Z,22.75
2023-01-29T01:41:56.003Z,22.40
2023-01-29T01:44:53.600Z,21.25
2023-01-29T01:47:43.161Z,19.33
2023-01-29T01:50:19.120Z,18.15
2023-01-29T01:52:50.713Z,16.20
2023-01-29T01:55:21.629Z,18.48
2023-01-29T01:57:55.175Z,20.08
2023-01-29T02:00:25.623Z,18.95
2023-01-29T02:03:12.078Z,17.35
2023-01-29T02:05:58.913Z,16.80
2023-01-29T02:09:18.770Z,18.02
2023-01-29T02:11:45.622Z,19.50
2023-01-29T02:14:12.651Z,20.30
2023-01-29T02:16:39.795Z,24.95
2023-01-29T02:19:17.325Z,29.95
2023-01-29T02:22:22.859Z,30.05
2023-01-29T02:24:55.742Z,27.13
2023-01-29T02:27:37.547Z,35.50
2023-01-29T02:30:12.535Z,31.90
2023-01-29T02:32:54.503Z,26.38
2023-01-29T02:35:30.170Z,19.77
2023-01-29T02:38:41.310Z,24.23
2023-01-29T02:41:27.998Z,23.05
2023-01-29T02:44:24.843Z,22.40
2023-01-29T02:47:04.108Z,21.45
2023-01-29T02:49:37.680Z,20.42
2023-01-29T02:52:36.099Z,19.08
2023-01-29T02:55:23.561Z,17.40
2023-01-29T02:57:53.106Z,16.95
2023-01-29T03:00:24.512Z,17.58
2023-01-29T03:03:25.080Z,13.10
2023-01-29T03:06:22.432Z,17.60
2023-01-29T03:09:01.444Z,15.40
2023-01-29T03:11:59.073Z,18.30
2023-01-29T03:14:54.351Z,25.60
2023-01-29T03:17:26.991Z,25.23
2023-01-29T03:19:54.336Z,25.50
2023-01-29T03:22:23.433Z,21.02
2023-01-29T03:25:18.183Z,25.63
2023-01-29T03:28:18.410Z,20.58
2023-01-29T03:31:16.088Z,23.88
2023-01-29T03:33:48.844Z,32.95
2023-01-29T03:36:38.016Z,28.52
2023-01-29T03:39:09.563Z,24.10
2023-01-29T03:41:58.945Z,31.15
2023-01-29T03:44:33.496Z,26.55
2023-01-29T03:47:31.454Z,21.02
2023-01-29T03:50:24.018Z,23.67
2023-01-29T03:52:59.651Z,23.83
2023-01-29T03:55:32.318Z,28.65
2023-01-29T03:58:14.738Z,27.63
2023-01-29T04:00:46.966Z,29.40
2023-01-29T04:03:34.264Z,38.17
2023-01-29T04:06:17.380Z,20.85
2023-01-29T04:08:54.774Z,19.50
2023-01-29T04:11:23.046Z,17.40
2023-01-29T04:13:51.450Z,23.70
2023-01-29T04:16:22.905Z,26.58
2023-01-29T04:18:50.387Z,19.42
2023-01-29T04:21:18.638Z,18.08
2023-01-29T04:23:45.499Z,17.90
2023-01-29T04:26:35.477Z,15.98
2023-01-29T04:29:46.733Z,13.00
2023-01-29T04:32:40.858Z,14.30
2023-01-29T04:35:30.850Z,22.92
2023-01-29T04:38:12.901Z,19.80
2023-01-29T04:41:15.347Z,17.40
2023-01-29T04:43:58.734Z,17.63
2023-01-29T04:46:39.433Z,29.77
2023-01-29T04:49:18.502Z,23.40
2023-01-29T04:51:57.366Z,18.35
2023-01-29T04:54:48.919Z,21.67
2023-01-29T04:57:33.746Z,20.08
2023-01-29T05:00:09.000Z,19.80
2023-01-29T05:02:39.453Z,23.23
2023-01-29T05:05:08.473Z,24.05
2023-01-29T05:07:38.586Z,20.23
2023-01-29T05:10:09.286Z,25.55
2023-01-29T05:12:38.511Z,24.00
2023-01-29T05:15:11.233Z,30.00
2023-01-29T05:17:38.367Z,28.60
2023-01-29T05:20:06.180Z,38.05
2023-01-29T05:22:36.125Z,17.98
2023-01-29T05:25:03.051Z,14.00
2023-01-29T05:27:53.033Z,20.50
2023-01-29T05:30:19.933Z,20.45
2023-01-29T05:32:46.873Z,23.35
2023-01-29T05:35:14.063Z,34.80
2023-01-29T05:37:41.372Z,17.35
2023-01-29T05:40:09.749Z,16.38
2023-01-29T05:42:36.866Z,16.17
2023-01-29T05:45:04.227Z,20.40
2023-01-29T05:47:31.102Z,18.98
2023-01-29T05:49:57.978Z,15.85
2023-01-29T05:52:24.842Z,14.48
2023-01-29T05:54:51.675Z,18.50
2023-01-29T05:57:18.539Z,15.82
2023-01-29T05:59:45.386Z,13.23
2023-01-29T06:02:12.329Z,15.93
2023-01-29T06:04:39.211Z,14.52
2023-01-29T06:07:06.061Z,12.95
2023-01-29T06:09:32.988Z,11.57
2023-01-29T06:11:59.966Z,12.95
2023-01-29T06:14:26.825Z,13.25
2023-01-29T06:16:53.698Z,16.83
2023-01-29T06:19:20.863Z,17.85
2023-01-29T06:21:47.709Z,28.50
2023-01-29T06:24:14.734Z,17.60
2023-01-29T06:26:41.697Z,21.30
2023-01-29T06:29:08.518Z,25.13
2023-01-29T06:31:39.723Z,18.48
2023-01-29T06:34:09.897Z,27.25
2023-01-29T06:36:36.785Z,31.52
2023-01-29T06:39:04.620Z,38.08
2023-01-29T06:41:31.465Z,50.13
2023-01-29T06:43:58.370Z,52.15
2023-01-29T06:46:25.251Z,33.88
2023-01-29T06:48:52.244Z,31.17
2023-01-29T06:51:19.098Z,32.33
2023-01-29T06:53:46.747Z,23.83
2023-01-29T06:56:13.871Z,23.17
2023-01-29T06:58:40.677Z,24.10
2023-01-29T07:01:09.593Z,32.90
2023-01-29T07:03:36.663Z,33.30
2023-01-29T07:06:03.909Z,27.45
2023-01-29T07:08:31.237Z,28.23
2023-01-29T07:11:01.934Z,25.13
2023-01-29T07:13:29.079Z,25.13
2023-01-29T07:16:03.090Z,34.25
2023-01-29T07:20:58.039Z,37.35
2023-01-29T07:23:25.389Z,49.08
2023-01-29T07:25:52.315Z,35.83
2023-01-29T07:28:20.690Z,24.85
2023-01-29T07:30:47.750Z,42.08
2023-01-29T07:33:14.706Z,31.33
2023-01-29T07:35:43.268Z,33.03
2023-01-29T07:38:11.099Z,24.55
2023-01-29T07:40:38.380Z,26.15
2023-01-29T07:43:07.153Z,16.60
2023-01-29T07:45:38.817Z,24.17
2023-01-29T07:48:07.388Z,22.52
2023-01-29T07:50:35.270Z,25.92
2023-01-29T07:53:02.800Z,16.35
2023-01-29T07:55:29.987Z,16.77
2023-01-29T07:58:01.625Z,17.85
2023-01-29T08:00:29.899Z,15.13
2023-01-29T08:03:08.015Z,19.58
2023-01-29T08:05:34.891Z,12.23
2023-01-29T08:08:07.038Z,15.27
2023-01-29T08:10:39.763Z,12.77
2023-01-29T08:13:08.202Z,15.35
2023-01-29T08:18:23.078Z,16.20
2023-01-29T08:20:49.878Z,13.88
2023-01-29T08:23:16.907Z,16.95
2023-01-29T08:25:43.997Z,18.13
2023-01-29T08:28:11.851Z,12.73
2023-01-29T08:30:39.008Z,17.45
2023-01-29T08:33:05.974Z,15.00
2023-01-29T08:35:33.033Z,12.15
2023-01-29T08:38:02.163Z,11.00
2023-01-29T08:40:34.195Z,14.30
2023-01-29T08:43:04.147Z,10.60
2023-01-29T08:45:34.763Z,10.85
2023-01-29T08:48:01.924Z,21.08
2023-01-29T08:50:33.025Z,14.98
2023-01-29T08:53:01.359Z,22.45
2023-01-29T08:55:29.283Z,19.85
2023-01-29T08:57:57.436Z,9.52
2023-01-29T09:00:24.818Z,12.25
2023-01-29T09:02:51.736Z,10.48
2023-01-29T09:05:19.034Z,10.85
2023-01-29T09:07:46.259Z,11.13
2023-01-29T09:10:13.577Z,18.83
2023-01-29T09:12:40.436Z,17.25
2023-01-29T09:15:07.890Z,26.35
2023-01-29T09:17:35.097Z,9.95
2023-01-29T09:20:02.094Z,7.35
2023-01-29T09:22:29.202Z,6.95
2023-01-29T09:24:56.051Z,6.10
2023-01-29T09:27:22.977Z,9.45
2023-01-29T09:29:49.816Z,13.20
2023-01-29T09:32:26.519Z,6.75
2023-01-29T09:35:03.575Z,6.75
2023-01-29T09:37:30.411Z,6.43
2023-01-29T09:39:57.224Z,7.43
2023-01-29T09:42:42.044Z,7.93
2023-01-29T09:45:21.859Z,8.10
2023-01-29T09:47:48.969Z,8.85
2023-01-29T09:50:21.821Z,12.43
2023-01-29T09:52:59.161Z,9.85
2023-01-29T09:55:32.686Z,11.57
2023-01-29T09:58:19.744Z,10.20
2023-01-29T10:01:11.210Z,10.38
2023-01-29T10:04:08.616Z,7.47
2023-01-29T10:06:56.604Z,7.03
2023-01-29T10:09:43.096Z,7.65
2023-01-29T10:12:12.994Z,5.75
2023-01-29T10:14:59.717Z,12.52
2023-01-29T10:18:09.150Z,7.35
2023-01-29T10:20:47.736Z,9.98
2023-01-29T10:23:17.344Z,6.22
2023-01-29T10:25:46.038Z,13.23
2023-01-29T10:28:48.577Z,8.00
2023-01-29T10:31:15.480Z,11.18
2023-01-29T10:34:01.060Z,9.40
2023-01-29T10:36:49.892Z,10.55
2023-01-29T10:39:19.096Z,9.32
2023-01-29T10:41:55.030Z,9.80
2023-01-29T10:44:37.311Z,19.10
2023-01-29T10:47:32.466Z,10.68
2023-01-29T10:50:33.501Z,27.00
2023-01-29T10:53:20.052Z,15.90
2023-01-29T10:55:49.703Z,20.50
2023-01-29T10:58:28.438Z,12.85
2023-01-29T11:00:55.466Z,26.85
2023-01-29T11:03:29.331Z,28.40
2023-01-29T11:05:59.289Z,20.15
2023-01-29T11:08:54.585Z,21.17
2023-01-29T11:11:26.297Z,30.13
2023-01-29T11:14:00.258Z,12.75
2023-01-29T11:19:01.639Z,7.00
2023-01-29T11:21:29.727Z,5.97
2023-01-29T11:24:18.751Z,9.85
2023-01-29T11:26:49.073Z,8.75
2023-01-29T11:29:33.927Z,11.85
2023-01-29T11:32:11.274Z,10.18
2023-01-29T11:35:19.373Z,6.38
2023-01-29T11:37:47.313Z,6.88
2023-01-29T11:40:20.046Z,7.28
2023-01-29T11:42:48.181Z,7.78
2023-01-29T11:45:23.789Z,9.85
2023-01-29T11:47:55.577Z,9.93
2023-01-29T11:50:29.200Z,10.38
2023-01-29T11:52:56.683Z,6.97
2023-01-29T11:55:38.006Z,8.50
2023-01-29T11:58:33.173Z,10.85
2023-01-29T12:01:01.214Z,10.65
2023-01-29T12:03:49.391Z,12.00
2023-01-29T12:06:24.239Z,11.02
2023-01-29T12:08:58.040Z,10.48
2023-01-29T12:11:33.431Z,11.18
2023-01-29T12:14:03.235Z,10.95
2023-01-29T12:16:32.813Z,11.60
2023-01-29T12:19:26.545Z,9.90
2023-01-29T12:22:04.023Z,9.10
2023-01-29T12:25:03.900Z,9.55
2023-01-29T12:27:48.094Z,7.75
2023-01-29T12:30:27.800Z,8.52
2023-01-29T12:33:09.334Z,7.28
2023-01-29T12:35:43.647Z,12.13
2023-01-29T12:38:22.351Z,13.45
2023-01-29T12:40:57.516Z,12.48
2023-01-29T12:43:28.706Z,9.02
2023-01-29T12:45:59.448Z,7.53
2023-01-29T12:48:33.773Z,9.27
2023-01-29T12:51:12.176Z,12.05
2023-01-29T12:54:00.776Z,11.00
2023-01-29T12:56:34.245Z,6.90
2023-01-29T12:59:04.800Z,10.60
2023-01-29T13:02:06.062Z,8.43
2023-01-29T13:04:41.421Z,8.88
2023-01-29T13:07:14.182Z,6.78
2023-01-29T13:09:46.193Z,9.85
2023-01-29T13:12:18.325Z,12.02
2023-01-29T13:14:50.459Z,12.75
2023-01-29T13:17:28.254Z,7.28
2023-01-29T13:19:59.032Z,12.07
2023-01-29T13:22:33.752Z,13.45
2023-01-29T13:25:05.240Z,16.05
2023-01-29T13:27:35.459Z,6.82
2023-01-29T13:30:02.822Z,16.90
2023-01-29T13:32:31.854Z,14.00
2023-01-29T13:35:01.477Z,10.45
2023-01-29T13:37:35.416Z,6.90
2023-01-29T13:42:47.086Z,12.68
2023-01-29T13:45:28.124Z,7.80
2023-01-29T13:48:24.329Z,8.63
2023-01-29T13:50:52.246Z,9.68
2023-01-29T13:53:26.847Z,14.23
2023-01-29T13:55:53.821Z,10.75
2023-01-29T13:58:33.002Z,7.72
2023-01-29T14:01:01.636Z,10.77
2023-01-29T14:03:39.898Z,12.15
2023-01-29T14:06:38.096Z,14.52
2023-01-29T14:09:24.943Z,9.45
2023-01-29T14:11:52.672Z,6.55
2023-01-29T14:14:50.270Z,8.15
2023-01-29T14:17:19.437Z,6.30
2023-01-29T14:19:51.184Z,6.10
2023-01-29T14:22:27.239Z,6.68
2023-01-29T14:24:58.220Z,6.50
2023-01-29T14:27:25.831Z,12.20
2023-01-29T14:30:02.813Z,7.57
2023-01-29T14:32:30.407Z,7.25
2023-01-29T14:35:02.797Z,7.97
2023-01-29T14:37:39.136Z,15.48
2023-01-29T14:40:11.882Z,14.48
2023-01-29T14:43:06.635Z,13.38
2023-01-29T14:45:39.254Z,10.93
2023-01-29T14:48:12.375Z,16.20
2023-01-29T14:50:53.494Z,13.63
2023-01-29T14:53:45.951Z,16.58
2023-01-29T14:56:15.951Z,13.52
2023-01-29T14:58:57.257Z,15.05
2023-01-29T15:01:30.690Z,18.58
2023-01-29T15:04:13.359Z,14.70
2023-01-29T15:07:04.700Z,17.73
2023-01-29T15:09:46.403Z,19.60
2023-01-29T15:12:24.779Z,21.42
2023-01-29T15:15:17.885Z,11.77
2023-01-29T15:18:17.709Z,16.65
2023-01-29T15:20:45.002Z,16.63
2023-01-29T15:23:29.702Z,18.00
2023-01-29T15:26:03.373Z,19.17
2023-01-29T15:28:32.319Z,15.57
2023-01-29T15:31:04.294Z,18.23
2023-01-29T15:33:32.305Z,12.82
2023-01-29T15:36:07.089Z,15.85
2023-01-29T15:38:35.122Z,13.30
2023-01-29T15:41:20.224Z,17.52
2023-01-29T15:43:57.025Z,16.02
2023-01-29T15:46:32.687Z,13.05
2023-01-29T15:49:06.362Z,12.82
2023-01-29T15:51:33.910Z,8.90
2023-01-29T15:54:03.713Z,7.65
2023-01-29T15:56:51.884Z,8.30
2023-01-29T15:59:24.464Z,8.10
2023-01-29T16:01:51.459Z,7.75
2023-01-29T16:04:29.109Z,8.32
2023-01-29T16:06:58.115Z,7.60
2023-01-29T16:09:26.774Z,7.88
2023-01-29T16:11:57.662Z,8.63
2023-01-29T16:14:26.715Z,7.57
2023-01-29T16:16:54.438Z,7.05
2023-01-29T16:19:27.619Z,7.07
2023-01-29T16:22:03.732Z,7.17
2023-01-29T16:24:32.762Z,8.40
2023-01-29T16:27:13.701Z,7.40
2023-01-29T16:29:40.660Z,7.72
2023-01-29T16:32:12.365Z,7.90
2023-01-29T16:34:42.397Z,8.30
2023-01-29T16:37:25.859Z,8.02
2023-01-29T16:39:53.201Z,8.07
2023-01-29T16:42:23.888Z,9.73
2023-01-29T16:44:58.299Z,10.00
2023-01-29T16:47:41.467Z,11.70
2023-01-29T16:50:46.273Z,11.45
2023-01-29T16:53:23.378Z,13.38
2023-01-29T16:55:52.625Z,16.98
2023-01-29T16:58:28.148Z,20.33
2023-01-29T17:01:09.475Z,16.73
2023-01-29T17:03:38.420Z,17.10
2023-01-29T17:06:13.775Z,17.95
2023-01-29T17:08:43.923Z,17.50
2023-01-29T17:11:14.037Z,14.38
2023-01-29T17:13:43.719Z,13.57
2023-01-29T17:16:24.312Z,11.25
2023-01-29T17:18:51.251Z,11.98
2023-01-29T17:21:18.186Z,12.95
2023-01-29T17:23:45.174Z,15.60
2023-01-29T17:26:14.050Z,12.48
2023-01-29T17:28:41.810Z,12.52
2023-01-29T17:31:09.376Z,10.88
2023-01-29T17:33:39.557Z,11.80
2023-01-29T17:36:09.084Z,11.00
2023-01-29T17:38:35.941Z,11.63
2023-01-29T17:41:21.464Z,12.23
2023-01-29T17:43:48.697Z,10.55
2023-01-29T17:46:17.365Z,11.05
2023-01-29T17:48:44.866Z,10.88
2023-01-29T17:51:16.382Z,11.05
2023-01-29T17:53:46.244Z,10.50
2023-01-29T17:56:29.571Z,11.02
2023-01-29T17:58:56.849Z,12.52
2023-01-29T18:01:23.823Z,11.32
2023-01-29T18:03:50.761Z,11.45
2023-01-29T18:06:28.170Z,10.77
2023-01-29T18:08:56.364Z,12.13
2023-01-29T18:11:23.537Z,13.65
2023-01-29T18:13:50.905Z,12.90
2023-01-29T18:16:18.525Z,10.90
2023-01-29T18:18:45.472Z,11.73
2023-01-29T18:21:12.362Z,10.73
2023-01-29T18:23:39.345Z,12.02
2023-01-29T18:26:07.613Z,11.63
2023-01-29T18:28:34.566Z,10.23
2023-01-29T18:31:02.640Z,11.00
2023-01-29T18:33:29.652Z,11.65
2023-01-29T18:35:56.793Z,12.95
2023-01-29T18:38:24.021Z,11.82
2023-01-29T18:40:51.050Z,14.95
2023-01-29T18:43:18.004Z,16.15
2023-01-29T18:45:44.938Z,12.98
2023-01-29T18:48:11.825Z,13.55
2023-01-29T18:50:38.696Z,13.65
2023-01-29T18:53:05.610Z,12.68
2023-01-29T18:55:32.441Z,11.68
2023-01-29T18:58:26.740Z,15.30
2023-01-29T19:00:47.911Z,12.65
2023-01-29T19:03:15.002Z,12.50
2023-01-29T19:05:41.949Z,12.82
2023-01-29T19:08:09.286Z,11.60
2023-01-29T19:10:36.486Z,11.68
2023-01-29T19:13:05.747Z,13.02
2023-01-29T19:15:34.045Z,12.07
2023-01-29T19:18:01.147Z,13.20
2023-01-29T19:20:28.146Z,11.40
2023-01-29T19:22:55.088Z,12.18
2023-01-29T19:25:21.993Z,12.88
2023-01-29T19:27:48.867Z,12.20
2023-01-29T19:30:15.988Z,14.55
2023-01-29T19:32:42.851Z,14.38
2023-01-29T19:35:09.737Z,17.17
2023-01-29T19:37:36.546Z,18.15
2023-01-29T19:40:03.647Z,18.65
2023-01-29T19:42:30.513Z,17.88
2023-01-29T19:44:57.318Z,17.38
2023-01-29T19:47:24.332Z,15.30
2023-01-29T19:49:51.203Z,17.70
2023-01-29T19:52:50.278Z,18.95
2023-01-29T19:55:18.480Z,15.48
2023-01-29T19:57:45.698Z,14.48
2023-01-29T20:00:14.901Z,15.48
2023-01-29T20:02:41.773Z,14.88
2023-01-29T20:05:11.302Z,18.50
2023-01-29T20:07:39.968Z,15.43
2023-01-29T20:10:17.105Z,15.48
2023-01-29T20:12:45.151Z,16.95
2023-01-29T20:15:13.301Z,47.88
2023-01-29T20:17:40.463Z,51.55
2023-01-29T20:20:08.657Z,63.15
2023-01-29T20:22:35.734Z,50.83
2023-01-29T20:25:02.758Z,39.65
2023-01-29T20:27:29.561Z,28.20
2023-01-29T20:29:56.414Z,37.80
2023-01-29T20:32:23.310Z,40.17
2023-01-29T20:34:52.276Z,32.13
2023-01-29T20:37:19.660Z,33.55
2023-01-29T20:39:46.883Z,29.75
2023-01-29T20:42:13.900Z,26.33
2023-01-29T20:44:40.896Z,25.58
2023-01-29T20:47:08.557Z,18.17
2023-01-29T20:49:35.476Z,19.52
2023-01-29T20:52:02.307Z,19.75
2023-01-29T20:54:30.190Z,18.50
2023-01-29T20:56:57.319Z,17.90
2023-01-29T20:59:24.798Z,19.83
2023-01-29T21:01:51.721Z,21.13
2023-01-29T21:04:18.602Z,19.30
2023-01-29T21:06:45.439Z,19.08
2023-01-29T21:09:12.293Z,19.23
2023-01-29T21:11:39.125Z,18.75
2023-01-29T21:14:05.977Z,17.63
2023-01-29T21:16:32.903Z,16.63
2023-01-29T21:19:00.145Z,18.27
2023-01-29T21:21:27.034Z,16.20
2023-01-29T21:23:54.547Z,17.80
2023-01-29T21:26:23.281Z,16.52
2023-01-29T21:28:50.240Z,16.00
2023-01-29T21:31:17.757Z,16.35
2023-01-29T21:33:44.752Z,18.80
2023-01-29T21:36:11.877Z,23.60
2023-01-29T21:38:39.528Z,21.13
2023-01-29T21:41:09.673Z,20.92
2023-01-29T21:43:37.313Z,16.40
2023-01-29T21:46:11.491Z,21.58
2023-01-29T21:48:39.683Z,18.73
2023-01-29T21:51:07.462Z,16.65
2023-01-29T21:53:34.938Z,14.73
2023-01-29T21:56:03.367Z,14.85
2023-01-29T21:58:30.676Z,14.82
2023-01-29T22:01:18.480Z,14.88
2023-01-29T22:03:47.047Z,14.52
2023-01-29T22:06:14.553Z,15.00
2023-01-29T22:08:41.420Z,15.05
2023-01-29T22:11:08.659Z,13.45
2023-01-29T22:13:35.715Z,15.65
2023-01-29T22:16:02.627Z,13.07
2023-01-29T22:18:29.472Z,15.35
2023-01-29T22:20:57.590Z,14.02
2023-01-29T22:23:24.971Z,14.10
2023-01-29T22:25:51.787Z,13.02
2023-01-29T22:28:18.854Z,13.65
2023-01-29T22:30:45.750Z,13.63
2023-01-29T22:33:12.792Z,14.18
2023-01-29T22:35:39.786Z,16.95
2023-01-29T22:38:07.792Z,13.43
2023-01-29T22:40:34.639Z,15.07
2023-01-29T22:43:01.466Z,14.40
2023-01-29T22:45:28.291Z,14.18
2023-01-29T22:47:55.175Z,13.65
2023-01-29T22:50:22.044Z,14.25
2023-01-29T22:52:54.184Z,14.52
2023-01-29T22:55:21.298Z,15.60
2023-01-29T22:57:51.067Z,14.43
2023-01-29T23:00:18.837Z,14.57
2023-01-29T23:02:50.217Z,14.40
2023-01-29T23:05:17.922Z,15.30
2023-01-29T23:07:45.533Z,14.00
2023-01-29T23:10:14.777Z,13.75
2023-01-29T23:12:41.794Z,12.90
2023-01-29T23:15:08.895Z,14.25
2023-01-29T23:17:35.810Z,16.38
2023-01-29T23:20:02.694Z,15.23
2023-01-29T23:22:29.528Z,16.75
2023-01-29T23:24:56.534Z,16.25
2023-01-29T23:27:23.530Z,21.05
2023-01-29T23:29:50.335Z,24.85
2023-01-29T23:32:20.206Z,16.70
2023-01-29T23:34:47.134Z,17.10
2023-01-29T23:37:14.077Z,17.95
2023-01-29T23:39:40.879Z,21.08
2023-01-29T23:42:07.818Z,19.52
2023-01-29T23:44:35.617Z,20.55
2023-01-29T23:47:02.430Z,18.05
2023-01-29T23:49:29.317Z,17.73
2023-01-29T23:51:56.276Z,19.08
2023-01-29T23:54:23.385Z,20.00
2023-01-29T23:56:50.300Z,19.45
2023-01-29T23:59:17.387Z,25.33
